EWG7XR EDDK-LOWW
Flight info
| Callsign | EWG7XR |
|---|---|
| Flight time | 1h 5m |
| Altitude | 35000 |
| Route | KUMIK1R/31R KUMIK L603 TESGA DCT ESATI DCT BARSU DCT DEXIT/N0443F310 DCT VENEN VENEN3W |
| Aircraft | A320/M-SDE3FGHIRWY/LB1 |
Departure
| Time | 2026-04-20 15:50 |
|---|---|
| Airport | Cologne Bonn Airport (EDDK) |
Arrival
| Time | 2026-04-20 16:55 |
|---|---|
| Airport | Vienna International Airport (LOWW) |
| Time | Latitude | Longitude | Altitude | Speed | Heading |
|---|---|---|---|---|---|
| 2026-04-20 15:08 | 50.87962 | 7.12411 | 232 ft | 0 kts | 246° |
| 2026-04-20 15:38 | 50.87964 | 7.12416 | 232 ft | 3 kts | 246° |
| 2026-04-20 15:39 | 50.87974 | 7.12453 | 232 ft | 3 kts | 246° |
| 2026-04-20 15:39 | 50.87985 | 7.12486 | 235 ft | 4 kts | 225° |
| 2026-04-20 15:39 | 50.88006 | 7.12505 | 235 ft | 4 kts | 176° |
| 2026-04-20 15:39 | 50.88029 | 7.12491 | 235 ft | 4 kts | 128° |
| 2026-04-20 15:40 | 50.88034 | 7.12481 | 235 ft | 0 kts | 120° |
| 2026-04-20 15:42 | 50.88032 | 7.12487 | 237 ft | 3 kts | 120° |
| 2026-04-20 15:43 | 50.88015 | 7.12534 | 234 ft | 5 kts | 120° |
| 2026-04-20 15:43 | 50.87981 | 7.12601 | 232 ft | 12 kts | 142° |
| 2026-04-20 15:43 | 50.87891 | 7.12614 | 232 ft | 12 kts | 194° |
| 2026-04-20 15:43 | 50.87814 | 7.12639 | 232 ft | 11 kts | 143° |
| 2026-04-20 15:44 | 50.87787 | 7.12742 | 232 ft | 10 kts | 82° |
| 2026-04-20 15:44 | 50.87761 | 7.12865 | 233 ft | 16 kts | 137° |
| 2026-04-20 15:44 | 50.87662 | 7.13010 | 233 ft | 23 kts | 137° |
| 2026-04-20 15:44 | 50.87530 | 7.13200 | 233 ft | 28 kts | 138° |
| 2026-04-20 15:45 | 50.87382 | 7.13416 | 232 ft | 30 kts | 137° |
| 2026-04-20 15:45 | 50.87228 | 7.13639 | 237 ft | 30 kts | 138° |
| 2026-04-20 15:45 | 50.87075 | 7.13858 | 243 ft | 30 kts | 137° |
| 2026-04-20 15:45 | 50.86967 | 7.14014 | 250 ft | 12 kts | 138° |
| 2026-04-20 15:46 | 50.86902 | 7.14020 | 254 ft | 12 kts | 201° |
| 2026-04-20 15:46 | 50.86821 | 7.14071 | 255 ft | 14 kts | 137° |
| 2026-04-20 15:46 | 50.86737 | 7.14145 | 256 ft | 13 kts | 155° |
| 2026-04-20 15:46 | 50.86673 | 7.14223 | 260 ft | 14 kts | 137° |
| 2026-04-20 15:47 | 50.86550 | 7.14405 | 263 ft | 31 kts | 137° |
| 2026-04-20 15:47 | 50.86398 | 7.14625 | 272 ft | 29 kts | 137° |
| 2026-04-20 15:47 | 50.86254 | 7.14833 | 280 ft | 27 kts | 137° |
| 2026-04-20 15:47 | 50.86117 | 7.15030 | 287 ft | 26 kts | 137° |
| 2026-04-20 15:48 | 50.86044 | 7.15186 | 292 ft | 15 kts | 98° |
| 2026-04-20 15:48 | 50.86080 | 7.15325 | 293 ft | 14 kts | 40° |
| 2026-04-20 15:48 | 50.86186 | 7.15347 | 293 ft | 18 kts | 348° |
| 2026-04-20 15:48 | 50.86316 | 7.15303 | 286 ft | 19 kts | 349° |
| 2026-04-20 15:49 | 50.86374 | 7.15330 | 285 ft | 5 kts | 6° |
| 2026-04-20 15:49 | 50.86429 | 7.15254 | 283 ft | 30 kts | 317° |
| 2026-04-20 15:49 | 50.86790 | 7.14729 | 267 ft | 106 kts | 317° |
| 2026-04-20 15:49 | 50.87472 | 7.13756 | 473 ft | 141 kts | 319° |
| 2026-04-20 15:50 | 50.88185 | 7.12730 | 1296 ft | 141 kts | 317° |
| 2026-04-20 15:50 | 50.88947 | 7.11654 | 1925 ft | 155 kts | 327° |
| 2026-04-20 15:50 | 50.90043 | 7.11251 | 2272 ft | 178 kts | 9° |
| 2026-04-20 15:50 | 50.91277 | 7.12017 | 2693 ft | 202 kts | 24° |
| 2026-04-20 15:51 | 50.92567 | 7.13001 | 3524 ft | 207 kts | 27° |
| 2026-04-20 15:51 | 50.93674 | 7.14505 | 4369 ft | 219 kts | 51° |
| 2026-04-20 15:51 | 50.94447 | 7.16747 | 4878 ft | 245 kts | 62° |
| 2026-04-20 15:51 | 50.95225 | 7.19257 | 5561 ft | 260 kts | 62° |
| 2026-04-20 15:52 | 50.96029 | 7.21854 | 6510 ft | 265 kts | 62° |
| 2026-04-20 15:52 | 50.96851 | 7.24495 | 7438 ft | 269 kts | 63° |
| 2026-04-20 15:52 | 50.97371 | 7.27375 | 8360 ft | 277 kts | 85° |
| 2026-04-20 15:53 | 50.97099 | 7.33538 | 10301 ft | 283 kts | 94° |
| 2026-04-20 15:53 | 50.96912 | 7.36768 | 10747 ft | 305 kts | 94° |
| 2026-04-20 15:53 | 50.96713 | 7.40253 | 11072 ft | 328 kts | 94° |
| 2026-04-20 15:53 | 50.96506 | 7.43916 | 11699 ft | 338 kts | 94° |
| 2026-04-20 15:54 | 50.96292 | 7.47660 | 12495 ft | 343 kts | 94° |
| 2026-04-20 15:54 | 50.96072 | 7.51448 | 13326 ft | 346 kts | 94° |
| 2026-04-20 15:54 | 50.95849 | 7.55263 | 14132 ft | 350 kts | 94° |
| 2026-04-20 15:54 | 50.95623 | 7.59123 | 14844 ft | 353 kts | 95° |
| 2026-04-20 15:55 | 50.95396 | 7.63021 | 15548 ft | 357 kts | 95° |
| 2026-04-20 15:55 | 50.95165 | 7.66970 | 16241 ft | 361 kts | 95° |
| 2026-04-20 15:55 | 50.94929 | 7.70960 | 16926 ft | 365 kts | 95° |
| 2026-04-20 15:55 | 50.94691 | 7.74982 | 17615 ft | 369 kts | 95° |
| 2026-04-20 15:56 | 50.94350 | 7.79040 | 18294 ft | 373 kts | 102° |
| 2026-04-20 15:56 | 50.93571 | 7.82972 | 18904 ft | 376 kts | 112° |
| 2026-04-20 15:56 | 50.92331 | 7.86636 | 19536 ft | 378 kts | 122° |
| 2026-04-20 15:56 | 50.90866 | 7.90107 | 20199 ft | 379 kts | 123° |
| 2026-04-20 15:57 | 50.89402 | 7.93593 | 20796 ft | 381 kts | 123° |
| 2026-04-20 15:57 | 50.87933 | 7.97103 | 21344 ft | 385 kts | 123° |
| 2026-04-20 15:57 | 50.86425 | 8.00708 | 21479 ft | 399 kts | 123° |
| 2026-04-20 15:57 | 50.84866 | 8.04433 | 21613 ft | 411 kts | 123° |
| 2026-04-20 15:58 | 50.83264 | 8.08258 | 21750 ft | 422 kts | 123° |
| 2026-04-20 15:58 | 50.81626 | 8.12158 | 21967 ft | 429 kts | 123° |
| 2026-04-20 15:58 | 50.79962 | 8.16107 | 22354 ft | 432 kts | 123° |
| 2026-04-20 15:58 | 50.78290 | 8.20065 | 22778 ft | 434 kts | 123° |
| 2026-04-20 15:59 | 50.76609 | 8.24046 | 23199 ft | 436 kts | 123° |
| 2026-04-20 15:59 | 50.74919 | 8.28041 | 23607 ft | 438 kts | 123° |
| 2026-04-20 15:59 | 50.73219 | 8.32047 | 23954 ft | 440 kts | 123° |
| 2026-04-20 15:59 | 50.71492 | 8.35985 | 24227 ft | 443 kts | 127° |
| 2026-04-20 16:00 | 50.69423 | 8.39607 | 24490 ft | 447 kts | 136° |
| 2026-04-20 16:00 | 50.67000 | 8.42712 | 24751 ft | 451 kts | 144° |
| 2026-04-20 16:00 | 50.64287 | 8.45229 | 25007 ft | 455 kts | 151° |
| 2026-04-20 16:00 | 50.61480 | 8.47584 | 25265 ft | 458 kts | 151° |
| 2026-04-20 16:01 | 50.58653 | 8.49960 | 25488 ft | 462 kts | 151° |
| 2026-04-20 16:01 | 50.55806 | 8.52356 | 25700 ft | 466 kts | 152° |
| 2026-04-20 16:01 | 50.52940 | 8.54775 | 25917 ft | 470 kts | 152° |
| 2026-04-20 16:01 | 50.50052 | 8.57213 | 26226 ft | 471 kts | 152° |
| 2026-04-20 16:02 | 50.47165 | 8.59652 | 26510 ft | 473 kts | 152° |
| 2026-04-20 16:02 | 50.44383 | 8.62445 | 26778 ft | 477 kts | 144° |
| 2026-04-20 16:02 | 50.41861 | 8.65842 | 27053 ft | 479 kts | 136° |
| 2026-04-20 16:02 | 50.39463 | 8.69490 | 27370 ft | 481 kts | 136° |
| 2026-04-20 16:03 | 50.37051 | 8.73137 | 27721 ft | 482 kts | 137° |
| 2026-04-20 16:03 | 50.34634 | 8.76774 | 28050 ft | 483 kts | 137° |
| 2026-04-20 16:03 | 50.32205 | 8.80424 | 28385 ft | 485 kts | 137° |
| 2026-04-20 16:03 | 50.29768 | 8.84080 | 28703 ft | 487 kts | 137° |
| 2026-04-20 16:04 | 50.27315 | 8.87751 | 29022 ft | 489 kts | 137° |
| 2026-04-20 16:04 | 50.24853 | 8.91423 | 29341 ft | 490 kts | 137° |
| 2026-04-20 16:04 | 50.22376 | 8.95118 | 29673 ft | 492 kts | 138° |
| 2026-04-20 16:04 | 50.19897 | 8.98815 | 29988 ft | 494 kts | 140° |
| 2026-04-20 16:05 | 50.17406 | 9.02530 | 30261 ft | 496 kts | 138° |
| 2026-04-20 16:05 | 50.14907 | 9.06252 | 30530 ft | 498 kts | 138° |
| 2026-04-20 16:05 | 50.12390 | 9.09995 | 30808 ft | 499 kts | 138° |
| 2026-04-20 16:05 | 50.09989 | 9.13898 | 31082 ft | 502 kts | 131° |
| 2026-04-20 16:06 | 50.07948 | 9.18347 | 31372 ft | 505 kts | 121° |
| 2026-04-20 16:06 | 50.06362 | 9.23233 | 31666 ft | 506 kts | 112° |
| 2026-04-20 16:06 | 50.05279 | 9.28448 | 31976 ft | 507 kts | 102° |
| 2026-04-20 16:06 | 50.04638 | 9.33834 | 32285 ft | 506 kts | 98° |
| 2026-04-20 16:07 | 50.04244 | 9.37410 | 32496 ft | 507 kts | 98° |
| 2026-04-20 16:07 | 50.03434 | 9.44558 | 32921 ft | 507 kts | 99° |
| 2026-04-20 16:07 | 50.02807 | 9.49967 | 33237 ft | 508 kts | 99° |
| 2026-04-20 16:07 | 50.02170 | 9.55393 | 33546 ft | 508 kts | 99° |
| 2026-04-20 16:08 | 50.01750 | 9.58967 | 33757 ft | 508 kts | 99° |
| 2026-04-20 16:08 | 50.01115 | 9.64391 | 34060 ft | 509 kts | 99° |
| 2026-04-20 16:08 | 50.00478 | 9.69822 | 34349 ft | 509 kts | 99° |
| 2026-04-20 16:08 | 49.99842 | 9.75234 | 34665 ft | 508 kts | 99° |
| 2026-04-20 16:09 | 49.99206 | 9.80635 | 34971 ft | 507 kts | 99° |
| 2026-04-20 16:09 | 49.98571 | 9.86023 | 35081 ft | 507 kts | 99° |
| 2026-04-20 16:09 | 49.97295 | 9.96771 | 35114 ft | 506 kts | 99° |
| 2026-04-20 16:10 | 49.96002 | 10.07504 | 35115 ft | 505 kts | 99° |
| 2026-04-20 16:10 | 49.94706 | 10.18226 | 35113 ft | 505 kts | 99° |
| 2026-04-20 16:11 | 49.93400 | 10.28934 | 35110 ft | 505 kts | 99° |
| 2026-04-20 16:11 | 49.91771 | 10.39522 | 35119 ft | 506 kts | 110° |
| 2026-04-20 16:12 | 49.88755 | 10.49372 | 35114 ft | 506 kts | 117° |
| 2026-04-20 16:12 | 49.85555 | 10.59078 | 35107 ft | 506 kts | 117° |
| 2026-04-20 16:13 | 49.82351 | 10.68792 | 35108 ft | 507 kts | 117° |
| 2026-04-20 16:13 | 49.79133 | 10.78505 | 35110 ft | 507 kts | 117° |
| 2026-04-20 16:14 | 49.75921 | 10.88159 | 35109 ft | 507 kts | 117° |
| 2026-04-20 16:14 | 49.72666 | 10.97917 | 35112 ft | 508 kts | 117° |
| 2026-04-20 16:15 | 49.69447 | 11.07539 | 35110 ft | 508 kts | 118° |
| 2026-04-20 16:15 | 49.66186 | 11.17209 | 35103 ft | 508 kts | 118° |
| 2026-04-20 16:16 | 49.62923 | 11.26873 | 35106 ft | 507 kts | 118° |
| 2026-04-20 16:16 | 49.59652 | 11.36518 | 35094 ft | 507 kts | 118° |
| 2026-04-20 16:17 | 49.56361 | 11.46170 | 35072 ft | 510 kts | 118° |
| 2026-04-20 16:17 | 49.53057 | 11.55858 | 35055 ft | 512 kts | 118° |
| 2026-04-20 16:18 | 49.49725 | 11.65567 | 35055 ft | 513 kts | 118° |
| 2026-04-20 16:18 | 49.46379 | 11.75268 | 35054 ft | 514 kts | 118° |
| 2026-04-20 16:19 | 49.43022 | 11.84970 | 35057 ft | 514 kts | 118° |
| 2026-04-20 16:19 | 49.39661 | 11.94675 | 35065 ft | 515 kts | 118° |
| 2026-04-20 16:20 | 49.36291 | 12.04374 | 35071 ft | 515 kts | 118° |
| 2026-04-20 16:20 | 49.32908 | 12.14057 | 35072 ft | 515 kts | 119° |
| 2026-04-20 16:21 | 49.29517 | 12.23715 | 35069 ft | 514 kts | 119° |
| 2026-04-20 16:21 | 49.26126 | 12.33358 | 35065 ft | 514 kts | 119° |
| 2026-04-20 16:22 | 49.22729 | 12.42986 | 35063 ft | 513 kts | 119° |
| 2026-04-20 16:22 | 49.19326 | 12.52575 | 35055 ft | 513 kts | 120° |
| 2026-04-20 16:23 | 49.15908 | 12.62142 | 35053 ft | 513 kts | 120° |
| 2026-04-20 16:23 | 49.12489 | 12.71702 | 35049 ft | 513 kts | 120° |
| 2026-04-20 16:24 | 49.09084 | 12.81194 | 35048 ft | 513 kts | 120° |
| 2026-04-20 16:24 | 49.05653 | 12.90727 | 35042 ft | 512 kts | 120° |
| 2026-04-20 16:25 | 49.02215 | 13.00249 | 35044 ft | 512 kts | 120° |
| 2026-04-20 16:25 | 48.98765 | 13.09750 | 35034 ft | 512 kts | 120° |
| 2026-04-20 16:26 | 48.95307 | 13.19239 | 35038 ft | 512 kts | 120° |
| 2026-04-20 16:26 | 48.91854 | 13.28693 | 35031 ft | 511 kts | 120° |
| 2026-04-20 16:27 | 48.88414 | 13.38089 | 35031 ft | 511 kts | 120° |
| 2026-04-20 16:27 | 48.84921 | 13.47580 | 35025 ft | 512 kts | 120° |
| 2026-04-20 16:28 | 48.81463 | 13.56953 | 35034 ft | 512 kts | 121° |
| 2026-04-20 16:28 | 48.77968 | 13.66363 | 35040 ft | 512 kts | 121° |
| 2026-04-20 16:29 | 48.75049 | 13.76186 | 35034 ft | 513 kts | 110° |
| 2026-04-20 16:29 | 48.72691 | 13.86390 | 35029 ft | 513 kts | 110° |
| 2026-04-20 16:30 | 48.70315 | 13.96568 | 35026 ft | 512 kts | 110° |
| 2026-04-20 16:30 | 48.67926 | 14.06714 | 35018 ft | 512 kts | 110° |
| 2026-04-20 16:31 | 48.65535 | 14.16847 | 35025 ft | 512 kts | 110° |
| 2026-04-20 16:31 | 48.63142 | 14.26978 | 35014 ft | 511 kts | 110° |
| 2026-04-20 16:32 | 48.60745 | 14.37091 | 35012 ft | 511 kts | 110° |
| 2026-04-20 16:32 | 48.58334 | 14.47192 | 35013 ft | 511 kts | 111° |
| 2026-04-20 16:33 | 48.56527 | 14.57548 | 35011 ft | 511 kts | 96° |
| 2026-04-20 16:33 | 48.55979 | 14.68233 | 35008 ft | 510 kts | 94° |
| 2026-04-20 16:34 | 48.55450 | 14.78904 | 35023 ft | 509 kts | 94° |
| 2026-04-20 16:34 | 48.54907 | 14.89543 | 35034 ft | 507 kts | 94° |
| 2026-04-20 16:35 | 48.54362 | 15.00114 | 34269 ft | 505 kts | 94° |
| 2026-04-20 16:35 | 48.54089 | 15.05416 | 33280 ft | 508 kts | 95° |
| 2026-04-20 16:35 | 48.53812 | 15.10755 | 32294 ft | 510 kts | 95° |
| 2026-04-20 16:36 | 48.53537 | 15.15997 | 31003 ft | 506 kts | 95° |
| 2026-04-20 16:36 | 48.53253 | 15.21306 | 29209 ft | 509 kts | 95° |
| 2026-04-20 16:36 | 48.52965 | 15.26633 | 27204 ft | 511 kts | 95° |
| 2026-04-20 16:36 | 48.52672 | 15.31980 | 25180 ft | 511 kts | 95° |
| 2026-04-20 16:37 | 48.52373 | 15.37359 | 23415 ft | 509 kts | 95° |
| 2026-04-20 16:37 | 48.52083 | 15.42604 | 21870 ft | 496 kts | 95° |
| 2026-04-20 16:37 | 48.51801 | 15.47721 | 20413 ft | 483 kts | 95° |
| 2026-04-20 16:37 | 48.51524 | 15.52730 | 19016 ft | 472 kts | 95° |
| 2026-04-20 16:38 | 48.51249 | 15.57611 | 17592 ft | 462 kts | 94° |
| 2026-04-20 16:38 | 48.50977 | 15.62395 | 16160 ft | 453 kts | 95° |
| 2026-04-20 16:38 | 48.50706 | 15.67123 | 15142 ft | 451 kts | 95° |
| 2026-04-20 16:38 | 48.50436 | 15.71802 | 14460 ft | 445 kts | 95° |
| 2026-04-20 16:39 | 48.50169 | 15.76427 | 13741 ft | 440 kts | 95° |
| 2026-04-20 16:39 | 48.49905 | 15.80954 | 12964 ft | 435 kts | 95° |
| 2026-04-20 16:39 | 48.49636 | 15.85471 | 12203 ft | 430 kts | 95° |
| 2026-04-20 16:39 | 48.49363 | 15.89949 | 11444 ft | 425 kts | 95° |
| 2026-04-20 16:40 | 48.49085 | 15.94356 | 10688 ft | 419 kts | 96° |
| 2026-04-20 16:40 | 48.48353 | 15.98560 | 10176 ft | 408 kts | 114° |
| 2026-04-20 16:40 | 48.47195 | 16.02263 | 9909 ft | 375 kts | 116° |
| 2026-04-20 16:40 | 48.46121 | 16.05673 | 9693 ft | 345 kts | 116° |
| 2026-04-20 16:41 | 48.45132 | 16.08812 | 9548 ft | 318 kts | 116° |
| 2026-04-20 16:41 | 48.44199 | 16.11747 | 9095 ft | 306 kts | 116° |
| 2026-04-20 16:41 | 48.43280 | 16.14610 | 8459 ft | 302 kts | 116° |
| 2026-04-20 16:41 | 48.42360 | 16.17468 | 8084 ft | 301 kts | 116° |
| 2026-04-20 16:42 | 48.41450 | 16.20297 | 7985 ft | 300 kts | 116° |
| 2026-04-20 16:42 | 48.40537 | 16.23126 | 8005 ft | 300 kts | 116° |
| 2026-04-20 16:42 | 48.39623 | 16.25951 | 7897 ft | 299 kts | 116° |
| 2026-04-20 16:42 | 48.38719 | 16.28748 | 7497 ft | 297 kts | 116° |
| 2026-04-20 16:43 | 48.37815 | 16.31538 | 7128 ft | 295 kts | 116° |
| 2026-04-20 16:43 | 48.36922 | 16.34294 | 6744 ft | 294 kts | 115° |
| 2026-04-20 16:43 | 48.36025 | 16.37063 | 6367 ft | 292 kts | 115° |
| 2026-04-20 16:43 | 48.35137 | 16.39798 | 6035 ft | 289 kts | 115° |
| 2026-04-20 16:44 | 48.34251 | 16.42519 | 6000 ft | 290 kts | 115° |
| 2026-04-20 16:44 | 48.33335 | 16.45176 | 6007 ft | 291 kts | 123° |
| 2026-04-20 16:44 | 48.31948 | 16.47357 | 6009 ft | 290 kts | 143° |
| 2026-04-20 16:44 | 48.30349 | 16.49198 | 6006 ft | 290 kts | 143° |
| 2026-04-20 16:45 | 48.28723 | 16.51054 | 6010 ft | 290 kts | 144° |
| 2026-04-20 16:45 | 48.27144 | 16.52848 | 6010 ft | 289 kts | 144° |
| 2026-04-20 16:45 | 48.25536 | 16.54675 | 6010 ft | 289 kts | 144° |
| 2026-04-20 16:45 | 48.23932 | 16.56496 | 6006 ft | 289 kts | 144° |
| 2026-04-20 16:46 | 48.22331 | 16.58315 | 6007 ft | 289 kts | 144° |
| 2026-04-20 16:46 | 48.20729 | 16.60135 | 6007 ft | 289 kts | 144° |
| 2026-04-20 16:46 | 48.19131 | 16.61952 | 6009 ft | 289 kts | 144° |
| 2026-04-20 16:46 | 48.17524 | 16.63776 | 6009 ft | 289 kts | 144° |
| 2026-04-20 16:47 | 48.15919 | 16.65598 | 6009 ft | 289 kts | 144° |
| 2026-04-20 16:47 | 48.14316 | 16.67417 | 6008 ft | 289 kts | 144° |
| 2026-04-20 16:47 | 48.12689 | 16.69155 | 5781 ft | 286 kts | 149° |
| 2026-04-20 16:47 | 48.10968 | 16.70610 | 5366 ft | 283 kts | 155° |
| 2026-04-20 16:48 | 48.09162 | 16.71786 | 4949 ft | 281 kts | 161° |
| 2026-04-20 16:48 | 48.07315 | 16.72677 | 4546 ft | 278 kts | 166° |
| 2026-04-20 16:48 | 48.05457 | 16.73447 | 4121 ft | 276 kts | 166° |
| 2026-04-20 16:48 | 48.03608 | 16.74213 | 3689 ft | 275 kts | 166° |
| 2026-04-20 16:49 | 48.01768 | 16.74976 | 3268 ft | 274 kts | 166° |
| 2026-04-20 16:49 | 48.00555 | 16.75479 | 3049 ft | 272 kts | 166° |
| 2026-04-20 16:49 | 47.98734 | 16.76234 | 3000 ft | 272 kts | 167° |
| 2026-04-20 16:49 | 47.96883 | 16.76630 | 3003 ft | 263 kts | 189° |
| 2026-04-20 16:50 | 47.95262 | 16.75795 | 2997 ft | 235 kts | 220° |
| 2026-04-20 16:50 | 47.94296 | 16.74035 | 3005 ft | 210 kts | 250° |
| 2026-04-20 16:50 | 47.93783 | 16.72084 | 3005 ft | 195 kts | 255° |
| 2026-04-20 16:50 | 47.93440 | 16.70206 | 2998 ft | 181 kts | 274° |
| 2026-04-20 16:51 | 47.93832 | 16.68528 | 3004 ft | 172 kts | 307° |
| 2026-04-20 16:51 | 47.94636 | 16.67207 | 3007 ft | 173 kts | 314° |
| 2026-04-20 16:51 | 47.95501 | 16.65960 | 3009 ft | 174 kts | 315° |
| 2026-04-20 16:51 | 47.96383 | 16.64718 | 3000 ft | 175 kts | 319° |
| 2026-04-20 16:52 | 47.97476 | 16.63919 | 2916 ft | 178 kts | 341° |
| 2026-04-20 16:52 | 47.98668 | 16.63426 | 2717 ft | 177 kts | 341° |
| 2026-04-20 16:52 | 47.99836 | 16.62940 | 2473 ft | 169 kts | 341° |
| 2026-04-20 16:52 | 48.00924 | 16.62484 | 2282 ft | 158 kts | 341° |
| 2026-04-20 16:53 | 48.01976 | 16.62040 | 2053 ft | 156 kts | 341° |
| 2026-04-20 16:53 | 48.03021 | 16.61599 | 1844 ft | 156 kts | 341° |
| 2026-04-20 16:53 | 48.04021 | 16.61179 | 1629 ft | 142 kts | 340° |
| 2026-04-20 16:53 | 48.04938 | 16.60793 | 1443 ft | 134 kts | 342° |
| 2026-04-20 16:54 | 48.05819 | 16.60420 | 1272 ft | 129 kts | 342° |
| 2026-04-20 16:54 | 48.06676 | 16.60054 | 1081 ft | 127 kts | 343° |
| 2026-04-20 16:54 | 48.07519 | 16.59702 | 929 ft | 124 kts | 343° |
| 2026-04-20 16:54 | 48.08344 | 16.59353 | 743 ft | 124 kts | 344° |
| 2026-04-20 16:55 | 48.09195 | 16.58991 | 623 ft | 129 kts | 344° |
| 2026-04-20 16:55 | 48.09938 | 16.58680 | 618 ft | 87 kts | 344° |
| 2026-04-20 16:55 | 48.10306 | 16.58522 | 618 ft | 31 kts | 339° |
| 2026-04-20 16:55 | 48.10440 | 16.58315 | 609 ft | 25 kts | 298° |
| 2026-04-20 16:56 | 48.10492 | 16.58184 | 616 ft | 9 kts | 310° |
| 2026-04-20 16:56 | 48.10555 | 16.58139 | 619 ft | 12 kts | 345° |
| 2026-04-20 16:56 | 48.10658 | 16.58097 | 612 ft | 19 kts | 344° |
| 2026-04-20 16:56 | 48.10803 | 16.58034 | 617 ft | 23 kts | 344° |
| 2026-04-20 16:57 | 48.10914 | 16.57988 | 616 ft | 11 kts | 343° |
| 2026-04-20 16:57 | 48.10943 | 16.57975 | 612 ft | 10 kts | 344° |
| 2026-04-20 16:57 | 48.11025 | 16.57941 | 614 ft | 12 kts | 345° |
| 2026-04-20 16:57 | 48.11093 | 16.57899 | 614 ft | 12 kts | 317° |
| 2026-04-20 16:58 | 48.11137 | 16.57776 | 613 ft | 15 kts | 295° |
| 2026-04-20 16:58 | 48.11187 | 16.57624 | 624 ft | 17 kts | 296° |
| 2026-04-20 16:58 | 48.11236 | 16.57471 | 614 ft | 14 kts | 295° |
| 2026-04-20 16:58 | 48.11284 | 16.57328 | 618 ft | 17 kts | 296° |
| 2026-04-20 16:59 | 48.11338 | 16.57160 | 614 ft | 19 kts | 296° |
| 2026-04-20 16:59 | 48.11398 | 16.56977 | 625 ft | 18 kts | 296° |
| 2026-04-20 16:59 | 48.11455 | 16.56801 | 613 ft | 20 kts | 295° |
| 2026-04-20 16:59 | 48.11519 | 16.56605 | 615 ft | 22 kts | 296° |
| 2026-04-20 17:00 | 48.11664 | 16.56163 | 620 ft | 25 kts | 296° |
| 2026-04-20 17:00 | 48.11737 | 16.55938 | 621 ft | 21 kts | 296° |
| 2026-04-20 17:00 | 48.11794 | 16.55762 | 621 ft | 17 kts | 296° |
| 2026-04-20 17:01 | 48.11843 | 16.55610 | 617 ft | 14 kts | 295° |
| 2026-04-20 17:01 | 48.11880 | 16.55491 | 614 ft | 9 kts | 296° |
| 2026-04-20 17:01 | 48.11925 | 16.55501 | 622 ft | 7 kts | 62° |
| 2026-04-20 17:01 | 48.11946 | 16.55564 | 614 ft | 6 kts | 64° |
| 2026-04-20 17:02 | 48.11955 | 16.55591 | 617 ft | 0 kts | 64° |